Time;durP1;ratioP1;P1;durP2;ratioP2;P2;SDS_P1;SDS_P2;PMS_P1;PMS_P2;Temp;Humidity;BMP_temperature;BMP_pressure;BME280_temperature;BME280_humidity;BME280_pressure;Samples;Min_cycle;Max_cycle;Signal;HPM_P1;HPM_P2
2024/02/29 00:00:08;;;;;;;;;;;;;;;8.09;51.51;101301.19;4978504;27;98003;-69
2024/02/29 00:02:34;;;;;;;;;;;;;;;8.08;51.25;101294.19;4995253;27;98131;-69
2024/02/29 00:05:00;;;;;;;;;;;;;;;8.07;51.25;101300.63;4977598;27;98161;-71
2024/02/29 00:07:26;;;;;;;;;;;;;;;8.06;51.57;101301.66;4982914;27;105038;-71
2024/02/29 00:09:52;;;;;;;;;;;;;;;8.05;51.26;101306.19;4962666;27;98020;-69
2024/02/29 00:12:18;;;;;;;;;;;;;;;8.04;51.34;101301.06;4963856;27;98194;-69
2024/02/29 00:14:44;;;;;;;;;;;;;;;8.03;51.44;101297.56;4988666;27;98757;-71
2024/02/29 00:17:10;;;;;;;;;;;;;;;8.01;51.30;101296.97;4966795;27;98079;-71
2024/02/29 00:19:36;;;;;;;;;;;;;;;8.01;51.03;101298.84;4983601;27;98144;-71
2024/02/29 00:22:03;;;;;;;;;;;;;;;8.00;51.57;101292.66;4976314;27;98514;-69
2024/02/29 00:24:29;;;;;;;;;;;;;;;8.00;51.57;101299.88;4984433;27;98408;-70
2024/02/29 00:26:55;;;;;;;;;;;;;;;7.98;51.67;101288.56;4984488;27;98108;-71
2024/02/29 00:29:26;;;;;;;;;;;;;;;7.97;50.97;101279.69;4981041;27;98153;-69
2024/02/29 00:31:52;;;;;;;;;;;;;;;7.95;51.70;101284.47;4967179;27;99190;-71
2024/02/29 00:34:18;;;;;;;;;;;;;;;7.94;51.38;101282.84;4978116;27;114254;-71
2024/02/29 00:36:44;;;;;;;;;;;;;;;7.94;51.19;101276.63;4969985;27;119619;-70
2024/02/29 00:39:10;;;;;;;;;;;;;;;7.93;51.09;101277.69;4986365;27;98241;-69
2024/02/29 00:41:37;;;;;;;;;;;;;;;7.91;51.20;101282.47;4976285;27;99152;-69
2024/02/29 00:44:03;;;;;;;;;;;;;;;7.91;51.05;101274.44;4971383;27;98229;-71
2024/02/29 00:46:29;;;;;;;;;;;;;;;7.89;51.48;101271.97;4973427;27;98684;-71
2024/02/29 00:48:55;;;;;;;;;;;;;;;7.89;51.12;101269.28;4985657;27;98788;-69
2024/02/29 00:51:21;;;;;;;;;;;;;;;7.87;51.70;101263.34;4981966;27;98355;-70
2024/02/29 00:53:48;;;;;;;;;;;;;;;7.87;51.15;101263.34;4984814;27;98381;-70
2024/02/29 00:56:14;;;;;;;;;;;;;;;7.85;51.13;101262.72;5003242;27;98164;-71
2024/02/29 00:58:40;;;;;;;;;;;;;;;7.85;51.34;101268.09;4980082;27;128329;-69
2024/02/29 01:01:06;;;;;;;;;;;;;;;7.84;51.41;101272.66;4959258;27;97900;-71
2024/02/29 01:03:32;;;;;;;;;;;;;;;7.83;51.54;101265.66;4963514;27;99853;-69
2024/02/29 01:05:58;;;;;;;;;;;;;;;7.82;51.35;101260.50;4977302;27;97908;-70
2024/02/29 01:08:25;;;;;;;;;;;;;;;7.82;51.37;101260.50;4983517;27;97999;-71
2024/02/29 01:10:51;;;;;;;;;;;;;;;7.81;51.02;101262.38;4986614;27;98965;-70
2024/02/29 01:13:17;;;;;;;;;;;;;;;7.81;51.69;101257.00;4984563;27;130068;-70
2024/02/29 01:15:45;;;;;;;;;;;;;;;7.81;51.46;101258.88;4961079;27;98496;-70
2024/02/29 01:18:11;;;;;;;;;;;;;;;7.79;51.57;101252.94;4985657;27;98297;-70
2024/02/29 01:20:37;;;;;;;;;;;;;;;7.79;51.63;101252.94;4984930;27;98099;-71
2024/02/29 01:23:03;;;;;;;;;;;;;;;7.79;51.51;101242.19;4989226;27;98432;-69
2024/02/29 01:25:29;;;;;;;;;;;;;;;7.79;51.06;101247.56;4981559;27;97925;-69
2024/02/29 01:27:55;;;;;;;;;;;;;;;7.76;51.45;101238.09;4967573;27;98029;-71
2024/02/29 01:30:21;;;;;;;;;;;;;;;7.78;51.35;101233.31;4978449;27;126285;-69
2024/02/29 01:32:47;;;;;;;;;;;;;;;7.80;51.65;101223.16;4994720;27;102725;-69
2024/02/29 01:35:13;;;;;;;;;;;;;;;7.86;51.50;101233.00;4980149;27;105579;-71
2024/02/29 01:37:39;;;;;;;;;;;;;;;7.92;51.29;101233.09;5000309;27;98110;-71
2024/02/29 01:40:06;;;;;;;;;;;;;;;7.96;51.32;101231.59;4970640;27;98215;-69
2024/02/29 01:42:33;;;;;;;;;;;;;;;7.98;51.58;101222.28;5000552;27;113381;-71
2024/02/29 01:44:59;;;;;;;;;;;;;;;8.02;51.18;101220.75;4973601;27;97857;-70
2024/02/29 01:47:26;;;;;;;;;;;;;;;8.04;51.51;101220.50;4968988;27;98158;-71
2024/02/29 01:49:54;;;;;;;;;;;;;;;8.05;51.68;101217.56;4984998;27;98159;-70
2024/02/29 01:52:20;;;;;;;;;;;;;;;8.06;51.16;101210.38;4983145;27;104328;-69
2024/02/29 01:54:46;;;;;;;;;;;;;;;8.06;51.54;101213.06;4967060;27;98487;-72
2024/02/29 01:57:12;;;;;;;;;;;;;;;8.05;51.57;101204.16;4988222;27;100319;-69
2024/02/29 01:59:39;;;;;;;;;;;;;;;8.06;51.17;101207.69;4967279;27;97979;-71
2024/02/29 02:02:05;;;;;;;;;;;;;;;8.06;51.25;101207.69;4978436;27;97926;-70
2024/02/29 02:04:32;;;;;;;;;;;;;;;8.05;51.62;101206.03;4967308;27;100057;-71
2024/02/29 02:06:58;;;;;;;;;;;;;;;8.05;51.67;101197.97;4984941;27;100589;-71
2024/02/29 02:09:25;;;;;;;;;;;;;;;8.05;51.37;101197.97;4979557;27;98645;-69
2024/02/29 02:11:51;;;;;;;;;;;;;;;8.04;51.54;101199.84;4981982;27;97877;-70
2024/02/29 02:14:17;;;;;;;;;;;;;;;8.03;51.78;101192.03;5001988;27;98085;-69
2024/02/29 02:16:43;;;;;;;;;;;;;;;8.03;51.77;101192.03;4960724;27;101547;-71
2024/02/29 02:19:12;;;;;;;;;;;;;;;8.02;51.44;101195.78;4960429;27;98033;-71
2024/02/29 02:21:39;;;;;;;;;;;;;;;8.02;51.21;101193.09;4978441;27;99232;-69
2024/02/29 02:24:05;;;;;;;;;;;;;;;8.01;51.48;101189.56;4965397;27;98137;-69
2024/02/29 02:26:32;;;;;;;;;;;;;;;7.98;51.34;101182.00;4964168;27;97953;-69
2024/02/29 02:28:59;;;;;;;;;;;;;;;8.00;51.28;101184.44;4979743;27;98197;-70
2024/02/29 02:31:25;;;;;;;;;;;;;;;7.99;51.56;101174.75;4997664;27;114408;-69
2024/02/29 02:33:52;;;;;;;;;;;;;;;7.97;51.34;101172.28;4971494;27;98776;-69
2024/02/29 02:36:17;;;;;;;;;;;;;;;7.97;51.25;101172.28;4985870;27;100484;-69
2024/02/29 02:38:43;;;;;;;;;;;;;;;7.96;51.85;101169.84;4988608;27;129081;-71
2024/02/29 02:41:11;;;;;;;;;;;;;;;7.94;51.33;101159.34;4983394;27;98047;-69
2024/02/29 02:43:37;;;;;;;;;;;;;;;7.94;51.55;101162.03;5000178;27;98243;-69
2024/02/29 02:46:03;;;;;;;;;;;;;;;7.93;51.37;101165.75;4983353;27;98429;-69
2024/02/29 02:48:29;;;;;;;;;;;;;;;7.92;51.57;101150.69;4970178;27;99327;-69
2024/02/29 02:50:55;;;;;;;;;;;;;;;7.92;51.38;101153.38;4981387;27;99467;-69
2024/02/29 02:53:21;;;;;;;;;;;;;;;7.91;51.37;101151.75;5002313;27;117557;-71
2024/02/29 02:55:47;;;;;;;;;;;;;;;7.90;51.56;101152.81;4980306;27;99045;-71
2024/02/29 02:58:14;;;;;;;;;;;;;;;7.90;51.67;101150.13;4979851;27;128425;-69
2024/02/29 03:00:40;;;;;;;;;;;;;;;7.88;51.43;101141.47;4979824;27;98165;-71
2024/02/29 03:03:06;;;;;;;;;;;;;;;7.88;51.22;101150.34;4973818;27;98075;-71
2024/02/29 03:05:32;;;;;;;;;;;;;;;7.87;51.40;101150.59;4996557;27;98305;-71
2024/02/29 03:07:58;;;;;;;;;;;;;;;7.87;51.27;101145.22;4982850;27;111190;-69
2024/02/29 03:10:24;;;;;;;;;;;;;;;7.86;51.11;101135.53;4965512;27;105345;-69
2024/02/29 03:12:50;;;;;;;;;;;;;;;7.85;51.55;101142.75;4985163;27;98086;-69
2024/02/29 03:15:16;;;;;;;;;;;;;;;7.83;51.18;101142.19;4999852;27;97955;-70
2024/02/29 03:17:42;;;;;;;;;;;;;;;7.84;51.35;101145.66;4999946;27;97670;-70
2024/02/29 03:20:12;;;;;;;;;;;;;;;7.83;51.27;101142.19;4981801;27;110955;-71
2024/02/29 03:22:40;;;;;;;;;;;;;;;7.82;51.46;101148.59;5002882;27;98461;-69
2024/02/29 03:25:07;;;;;;;;;;;;;;;7.82;51.55;101145.06;4999113;27;98366;-71
2024/02/29 03:27:33;;;;;;;;;;;;;;;7.80;51.33;101137.25;4961464;27;98023;-71
2024/02/29 03:29:59;;;;;;;;;;;;;;;7.80;51.59;101139.94;4985622;27;98336;-70
2024/02/29 03:32:25;;;;;;;;;;;;;;;7.79;51.13;101135.63;4987905;27;98011;-69
2024/02/29 03:34:52;;;;;;;;;;;;;;;7.79;51.16;101137.50;4987854;27;97996;-70
2024/02/29 03:37:18;;;;;;;;;;;;;;;7.78;51.47;101131.31;5002756;27;98137;-69
2024/02/29 03:39:44;;;;;;;;;;;;;;;7.77;50.90;101131.53;4982813;27;98404;-69
2024/02/29 03:42:11;;;;;;;;;;;;;;;7.76;51.16;101136.09;4979708;27;98780;-70
2024/02/29 03:44:37;;;;;;;;;;;;;;;7.76;51.40;101129.91;4973488;27;98193;-69
2024/02/29 03:47:04;;;;;;;;;;;;;;;7.75;51.59;101139.03;4969016;27;99112;-69
2024/02/29 03:49:30;;;;;;;;;;;;;;;7.74;51.50;101132.84;4969014;27;97942;-70
2024/02/29 03:51:56;;;;;;;;;;;;;;;7.74;51.30;101123.94;4977294;27;99092;-69
2024/02/29 03:54:22;;;;;;;;;;;;;;;7.74;51.54;101126.63;4979490;27;98134;-70
2024/02/29 03:56:48;;;;;;;;;;;;;;;7.73;51.35;101125.81;4990338;27;99596;-69
2024/02/29 03:59:14;;;;;;;;;;;;;;;7.73;51.20;101112.41;4979361;27;99167;-69
2024/02/29 04:01:45;;;;;;;;;;;;;;;7.73;51.51;101115.09;4984585;27;98102;-71
2024/02/29 04:04:11;;;;;;;;;;;;;;;7.73;51.40;101116.94;4985505;27;99921;-69
2024/02/29 04:06:38;;;;;;;;;;;;;;;7.72;51.33;101115.31;4997149;27;111224;-71
2024/02/29 04:09:04;;;;;;;;;;;;;;;7.71;51.20;101111.03;4965598;27;98305;-69
2024/02/29 04:11:30;;;;;;;;;;;;;;;7.70;51.65;101112.84;4971217;27;98130;-69
2024/02/29 04:13:56;;;;;;;;;;;;;;;7.70;51.17;101112.03;4980347;27;98421;-71
2024/02/29 04:16:22;;;;;;;;;;;;;;;7.69;51.58;101108.53;4976472;27;101823;-70
2024/02/29 04:18:48;;;;;;;;;;;;;;;7.67;51.41;101109.84;4967428;27;98579;-70
2024/02/29 04:21:14;;;;;;;;;;;;;;;7.67;51.31;101102.63;4981636;27;98169;-69
2024/02/29 04:23:40;;;;;;;;;;;;;;;7.65;51.37;101109.25;4987311;27;98837;-70
2024/02/29 04:26:07;;;;;;;;;;;;;;;7.65;51.27;101107.38;5003157;27;101084;-71
2024/02/29 04:28:33;;;;;;;;;;;;;;;7.63;51.39;101109.50;4966475;27;99383;-70
2024/02/29 04:30:59;;;;;;;;;;;;;;;7.61;51.67;101101.66;4965405;27;99180;-69
2024/02/29 04:33:25;;;;;;;;;;;;;;;7.60;51.75;101097.34;4965173;27;102728;-69
2024/02/29 04:35:51;;;;;;;;;;;;;;;7.59;51.48;101094.91;4969868;27;100222;-69
2024/02/29 04:38:17;;;;;;;;;;;;;;;7.59;51.19;101102.97;5005013;27;98381;-69
2024/02/29 04:40:43;;;;;;;;;;;;;;;7.58;51.21;101095.94;4976272;27;98078;-69
2024/02/29 04:43:09;;;;;;;;;;;;;;;7.56;51.46;101098.03;4970243;27;97958;-71
2024/02/29 04:45:35;;;;;;;;;;;;;;;7.54;51.15;101095.56;4980325;27;98907;-71
2024/02/29 04:48:02;;;;;;;;;;;;;;;7.55;51.18;101096.41;4986819;27;98299;-71
2024/02/29 04:50:28;;;;;;;;;;;;;;;7.53;51.20;101095.81;4978396;27;98096;-70
2024/02/29 04:52:54;;;;;;;;;;;;;;;7.52;51.41;101094.19;4962517;27;98759;-69
2024/02/29 04:55:21;;;;;;;;;;;;;;;7.51;51.29;101085.34;4993272;27;98145;-70
2024/02/29 04:57:48;;;;;;;;;;;;;;;7.49;51.33;101090.09;4981401;27;98774;-69
2024/02/29 05:00:14;;;;;;;;;;;;;;;7.49;51.58;101100.00;4981876;27;98712;-71
2024/02/29 05:02:40;;;;;;;;;;;;;;;7.48;51.46;101088.47;4989937;27;97972;-70
2024/02/29 05:05:07;;;;;;;;;;;;;;;7.47;51.51;101081.47;5001302;27;98195;-70
2024/02/29 05:07:33;;;;;;;;;;;;;;;7.46;51.17;101079.81;4961389;27;99380;-68
2024/02/29 05:09:59;;;;;;;;;;;;;;;7.45;51.53;101090.81;4999165;27;98428;-69
2024/02/29 05:12:26;;;;;;;;;;;;;;;7.44;50.63;101089.97;4966897;27;98036;-69
2024/02/29 05:14:53;;;;;;;;;;;;;;;7.44;50.89;101089.16;4960552;27;98009;-69
2024/02/29 05:17:18;;;;;;;;;;;;;;;7.41;51.30;101098.50;4979391;27;122712;-71
2024/02/29 05:19:48;;;;;;;;;;;;;;;7.41;51.48;101100.34;4985436;27;97954;-71
2024/02/29 05:22:14;;;;;;;;;;;;;;;7.39;51.43;101095.22;4982638;27;98728;-71
2024/02/29 05:24:40;;;;;;;;;;;;;;;7.37;51.40;101090.09;4969727;27;99779;-69
2024/02/29 05:27:06;;;;;;;;;;;;;;;7.36;51.17;101083.09;4980349;27;98338;-69
2024/02/29 05:29:32;;;;;;;;;;;;;;;7.35;51.38;101081.47;5002604;27;98413;-69
2024/02/29 05:31:58;;;;;;;;;;;;;;;7.33;51.10;101091.59;4984104;27;118476;-69
2024/02/29 05:34:24;;;;;;;;;;;;;;;7.33;50.92;101085.41;4998135;27;98020;-69
2024/02/29 05:36:50;;;;;;;;;;;;;;;7.32;51.13;101084.59;4988262;27;98395;-69
2024/02/29 05:39:16;;;;;;;;;;;;;;;7.31;51.35;101079.44;4993151;27;98826;-71
2024/02/29 05:41:42;;;;;;;;;;;;;;;7.29;50.91;101079.69;4993252;27;107209;-71
2024/02/29 05:44:08;;;;;;;;;;;;;;;7.30;51.41;101073.28;4998540;27;98990;-69
2024/02/29 05:46:35;;;;;;;;;;;;;;;7.29;51.31;101074.31;4967121;27;98246;-70
2024/02/29 05:49:01;;;;;;;;;;;;;;;7.28;51.28;101074.56;4998512;27;98034;-69
2024/02/29 05:51:27;;;;;;;;;;;;;;;7.29;51.23;101081.56;4970484;27;98145;-71
2024/02/29 05:53:53;;;;;;;;;;;;;;;7.28;51.09;101080.75;4997506;27;100824;-71
2024/02/29 05:56:19;;;;;;;;;;;;;;;7.28;51.21;101077.25;4983622;27;98187;-69
2024/02/29 05:58:47;;;;;;;;;;;;;;;7.28;51.32;101082.63;4963627;27;98172;-69
2024/02/29 06:01:14;;;;;;;;;;;;;;;7.29;51.34;101079.69;4982721;27;98072;-70
2024/02/29 06:03:40;;;;;;;;;;;;;;;7.28;51.09;101067.34;4965055;27;98274;-69
2024/02/29 06:06:06;;;;;;;;;;;;;;;7.29;51.15;101066.28;4989238;27;98143;-68
2024/02/29 06:08:32;;;;;;;;;;;;;;;7.31;51.15;101072.25;4965472;27;98106;-71
2024/02/29 06:10:58;;;;;;;;;;;;;;;7.32;51.07;101071.19;4998799;27;127362;-69
2024/02/29 06:13:24;;;;;;;;;;;;;;;7.33;51.03;101070.13;4969924;27;97920;-71
2024/02/29 06:15:50;;;;;;;;;;;;;;;7.35;51.02;101070.72;4982705;27;98848;-71
2024/02/29 06:18:17;;;;;;;;;;;;;;;7.37;51.13;101070.50;4986803;27;100542;-71
2024/02/29 06:20:43;;;;;;;;;;;;;;;7.40;51.13;101075.41;4990555;27;97965;-69
2024/02/29 06:23:09;;;;;;;;;;;;;;;7.44;51.55;101081.94;4981049;27;116042;-69
2024/02/29 06:25:36;;;;;;;;;;;;;;;7.46;51.03;101082.50;4979962;27;98177;-71
2024/02/29 06:28:02;;;;;;;;;;;;;;;7.50;51.15;101080.19;4987138;27;98261;-69
2024/02/29 06:30:34;;;;;;;;;;;;;;;7.52;51.03;101070.06;4981098;27;100209;-69
2024/02/29 06:33:00;;;;;;;;;;;;;;;7.57;50.95;101070.16;4985043;27;98336;-69
2024/02/29 06:35:28;;;;;;;;;;;;;;;7.60;51.01;101072.38;4968133;27;99279;-69
2024/02/29 06:37:54;;;;;;;;;;;;;;;7.63;51.05;101067.38;5001677;27;98683;-69
2024/02/29 06:40:21;;;;;;;;;;;;;;;7.68;50.75;101061.31;5000834;27;98141;-71
2024/02/29 06:42:48;;;;;;;;;;;;;;;7.72;51.15;101069.69;4998442;27;98069;-71
2024/02/29 06:45:16;;;;;;;;;;;;;;;7.78;50.81;101061.53;4997420;27;98187;-70
2024/02/29 06:47:42;;;;;;;;;;;;;;;7.82;51.02;101054.66;4986265;27;98320;-71
2024/02/29 06:50:12;;;;;;;;;;;;;;;7.87;50.73;101056.63;4980910;27;98496;-71
2024/02/29 06:52:38;;;;;;;;;;;;;;;7.93;51.07;101058.34;4987056;27;98253;-71
2024/02/29 06:55:08;;;;;;;;;;;;;;;7.98;50.49;101045.06;4984495;27;100122;-71
2024/02/29 06:57:35;;;;;;;;;;;;;;;8.03;50.66;101050.53;4978238;27;98890;-70
2024/02/29 07:00:01;;;;;;;;;;;;;;;8.11;50.78;101047.47;4961931;27;98981;-70
2024/02/29 07:02:27;;;;;;;;;;;;;;;8.17;50.40;101047.56;4968840;27;98373;-69
2024/02/29 07:04:54;;;;;;;;;;;;;;;8.22;50.65;101045.84;4967762;27;98059;-69
2024/02/29 07:07:20;;;;;;;;;;;;;;;8.30;50.42;101039.28;4977564;27;97906;-70
2024/02/29 07:09:46;;;;;;;;;;;;;;;8.39;50.38;101037.06;4975922;27;100263;-70
2024/02/29 07:12:12;;;;;;;;;;;;;;;8.49;50.37;101030.00;4983109;27;99898;-70
2024/02/29 07:14:38;;;;;;;;;;;;;;;8.56;49.99;101033.34;4989369;27;97984;-70
2024/02/29 07:17:05;;;;;;;;;;;;;;;8.65;50.09;101036.50;4988494;27;97946;-69
2024/02/29 07:19:31;;;;;;;;;;;;;;;8.76;49.98;101032.94;4966708;27;98250;-71
2024/02/29 07:21:57;;;;;;;;;;;;;;;8.88;49.99;101035.53;4970983;27;98235;-71
2024/02/29 07:24:24;;;;;;;;;;;;;;;9.02;50.03;101039.56;5000001;27;109830;-70
2024/02/29 07:26:51;;;;;;;;;;;;;;;9.18;50.17;101042.50;4987028;27;98338;-69
2024/02/29 07:29:17;;;;;;;;;;;;;;;9.33;50.28;101040.06;4981562;27;98626;-71
2024/02/29 07:31:43;;;;;;;;;;;;;;;9.55;49.74;101043.66;4972766;27;98242;-71
2024/02/29 07:34:10;;;;;;;;;;;;;;;9.77;49.95;101041.00;4983503;27;99398;-71
2024/02/29 07:36:37;;;;;;;;;;;;;;;9.98;49.29;101042.09;4968800;27;98082;-70
2024/02/29 07:39:03;;;;;;;;;;;;;;;10.17;49.15;101037.19;4985291;27;99445;-71
2024/02/29 07:41:29;;;;;;;;;;;;;;;10.37;49.53;101035.84;4985669;27;98370;-70
2024/02/29 07:43:55;;;;;;;;;;;;;;;10.55;49.13;101035.53;5006004;27;102127;-71
2024/02/29 07:46:22;;;;;;;;;;;;;;;10.74;49.31;101036.00;4972551;27;98112;-70
2024/02/29 07:48:48;;;;;;;;;;;;;;;10.94;49.10;101038.88;4970242;27;113351;-70
2024/02/29 07:51:17;;;;;;;;;;;;;;;11.16;49.22;101043.38;4962118;27;97989;-72
2024/02/29 07:53:43;;;;;;;;;;;;;;;11.42;48.89;101033.59;4999591;27;99781;-70
2024/02/29 07:56:09;;;;;;;;;;;;;;;11.71;48.72;101032.19;4986381;27;98229;-70
2024/02/29 07:58:35;;;;;;;;;;;;;;;12.00;48.49;101027.22;4975673;27;98199;-70
2024/02/29 08:01:02;;;;;;;;;;;;;;;12.33;48.17;101024.38;4991243;27;98452;-70
2024/02/29 08:03:28;;;;;;;;;;;;;;;12.69;48.06;101022.59;4967118;27;98328;-70
2024/02/29 08:05:55;;;;;;;;;;;;;;;13.10;47.92;101025.34;4974523;27;98257;-70
2024/02/29 08:08:21;;;;;;;;;;;;;;;13.54;47.60;101027.50;5000845;27;98772;-71
2024/02/29 08:10:47;;;;;;;;;;;;;;;14.03;47.63;101018.69;4981895;27;98240;-72
2024/02/29 08:13:13;;;;;;;;;;;;;;;14.84;46.87;101014.78;4999639;27;98770;-72
2024/02/29 08:15:39;;;;;;;;;;;;;;;15.79;45.99;101013.41;4965232;27;99596;-70
2024/02/29 08:18:07;;;;;;;;;;;;;;;16.92;45.30;101006.19;4977384;27;98087;-72
2024/02/29 08:20:33;;;;;;;;;;;;;;;18.26;44.62;101016.25;4982112;27;100994;-71
2024/02/29 08:22:59;;;;;;;;;;;;;;;19.31;44.07;101015.22;4968060;27;127697;-71
2024/02/29 08:25:26;;;;;;;;;;;;;;;20.14;43.89;101015.41;5001741;27;102320;-70
2024/02/29 08:27:53;;;;;;;;;;;;;;;20.71;44.09;101015.38;4980903;27;99888;-70
2024/02/29 08:30:19;;;;;;;;;;;;;;;21.39;43.86;101006.59;4982496;27;98913;-72
2024/02/29 08:32:47;;;;;;;;;;;;;;;22.36;43.63;101014.88;4971800;27;98350;-72
2024/02/29 08:35:13;;;;;;;;;;;;;;;23.36;43.26;101020.47;4986663;27;98074;-71
2024/02/29 08:37:41;;;;;;;;;;;;;;;24.49;42.73;101017.09;5000255;27;112714;-71
2024/02/29 08:40:07;;;;;;;;;;;;;;;25.43;42.45;101018.53;5018931;27;101455;-71
2024/02/29 08:42:34;;;;;;;;;;;;;;;26.14;42.33;101019.50;4994088;27;98811;-71
2024/02/29 08:45:00;;;;;;;;;;;;;;;26.75;42.20;101013.34;4987622;27;98365;-71
2024/02/29 08:47:26;;;;;;;;;;;;;;;27.45;41.91;101009.53;4973175;27;97900;-71
2024/02/29 08:49:53;;;;;;;;;;;;;;;27.92;41.93;101008.34;4981789;27;98271;-71
2024/02/29 08:52:19;;;;;;;;;;;;;;;28.86;41.67;101009.25;4991646;27;97850;-71
2024/02/29 08:54:46;;;;;;;;;;;;;;;29.85;41.35;101007.84;4991596;27;98154;-72
2024/02/29 08:57:11;;;;;;;;;;;;;;;30.68;41.41;100995.19;4998059;27;102305;-72
2024/02/29 08:59:38;;;;;;;;;;;;;;;31.56;40.95;100991.03;5005221;27;102207;-71
2024/02/29 09:02:05;;;;;;;;;;;;;;;32.23;40.95;100992.16;4985549;27;98269;-72
2024/02/29 09:04:31;;;;;;;;;;;;;;;32.78;41.09;100980.38;4998870;27;98104;-72
2024/02/29 09:06:57;;;;;;;;;;;;;;;33.30;41.15;100977.66;4972121;27;98704;-72
2024/02/29 09:09:25;;;;;;;;;;;;;;;33.65;41.19;100968.22;5000157;27;97851;-71
2024/02/29 09:11:51;;;;;;;;;;;;;;;34.06;41.30;100964.59;4975650;27;99749;-72
2024/02/29 09:14:19;;;;;;;;;;;;;;;34.59;40.97;100960.41;4972542;27;99401;-73
2024/02/29 09:16:45;;;;;;;;;;;;;;;34.95;41.34;100957.06;4977767;27;98740;-72
2024/02/29 09:19:11;;;;;;;;;;;;;;;35.27;41.10;100959.41;4984342;27;98199;-71
2024/02/29 09:21:37;;;;;;;;;;;;;;;35.80;40.96;100956.88;4985502;27;98198;-69
2024/02/29 09:24:05;;;;;;;;;;;;;;;36.36;40.74;100959.81;4997095;27;97986;-69
2024/02/29 09:26:32;;;;;;;;;;;;;;;36.68;40.49;100941.50;4981148;27;100395;-70
2024/02/29 09:28:58;;;;;;;;;;;;;;;36.70;40.75;100942.63;4963287;27;98273;-70
2024/02/29 09:31:24;;;;;;;;;;;;;;;36.69;40.82;100937.47;4986842;27;98980;-70
2024/02/29 09:33:53;;;;;;;;;;;;;;;36.78;41.24;100927.19;4981890;27;98232;-69
2024/02/29 09:36:19;;;;;;;;;;;;;;;36.90;41.18;100917.31;4971183;27;98157;-69
2024/02/29 09:38:45;;;;;;;;;;;;;;;37.08;41.12;100912.06;5003294;27;98707;-69
2024/02/29 09:41:12;;;;;;;;;;;;;;;37.56;41.00;100909.66;4984883;27;99763;-69
2024/02/29 09:43:39;;;;;;;;;;;;;;;38.47;40.08;100906.66;4975532;27;98217;-70
2024/02/29 09:46:06;;;;;;;;;;;;;;;39.59;39.41;100904.63;4963084;27;98088;-69
2024/02/29 09:48:33;;;;;;;;;;;;;;;40.63;38.46;100910.00;4968602;27;98172;-69
2024/02/29 09:51:03;;;;;;;;;;;;;;;41.43;37.82;100895.75;4962834;27;98338;-69
2024/02/29 09:53:31;;;;;;;;;;;;;;;42.01;37.81;100891.16;5003433;27;98406;-70
2024/02/29 09:56:00;;;;;;;;;;;;;;;42.51;37.66;100882.34;4982177;27;98968;-69
2024/02/29 09:58:26;;;;;;;;;;;;;;;42.90;37.25;100877.59;4999702;27;102054;-69
2024/02/29 10:00:54;;;;;;;;;;;;;;;43.17;37.72;100873.81;4971628;27;99548;-69
2024/02/29 10:03:22;;;;;;;;;;;;;;;43.42;37.67;100871.69;4986608;27;98294;-69
2024/02/29 10:05:48;;;;;;;;;;;;;;;43.84;37.47;100865.81;4985077;27;98242;-69
2024/02/29 10:08:16;;;;;;;;;;;;;;;44.49;37.07;100855.28;4977561;27;99646;-70
2024/02/29 10:10:43;;;;;;;;;;;;;;;45.42;36.87;100857.50;5000948;27;98200;-70
2024/02/29 10:13:10;;;;;;;;;;;;;;;45.76;36.73;100845.19;4967322;27;98769;-70
2024/02/29 10:15:37;;;;;;;;;;;;;;;46.08;36.27;100850.91;4961379;27;98075;-70
2024/02/29 10:18:03;;;;;;;;;;;;;;;46.19;36.42;100839.63;4989011;27;98068;-69
2024/02/29 10:20:32;;;;;;;;;;;;;;;46.76;36.23;100832.19;4970233;27;98198;-69
2024/02/29 10:23:01;;;;;;;;;;;;;;;47.27;35.78;100827.44;4984501;27;99471;-69
2024/02/29 10:25:29;;;;;;;;;;;;;;;47.37;36.25;100823.09;4995316;27;99707;-69
2024/02/29 10:28:02;;;;;;;;;;;;;;;46.44;37.12;100815.19;4973877;27;100583;-69
2024/02/29 10:30:29;;;;;;;;;;;;;;;44.30;38.81;100808.53;4981664;27;97822;-70
2024/02/29 10:32:57;;;;;;;;;;;;;;;41.63;41.14;100793.47;4968263;27;102205;-70
2024/02/29 10:35:24;;;;;;;;;;;;;;;41.00;41.32;100783.78;4955880;27;99505;-69
2024/02/29 10:37:54;;;;;;;;;;;;;;;38.65;43.35;100788.66;4979187;27;98371;-70
2024/02/29 10:40:25;;;;;;;;;;;;;;;40.39;40.65;100783.47;4971950;27;98030;-68
2024/02/29 10:42:56;;;;;;;;;;;;;;;38.13;43.11;100772.28;4990267;27;98180;-69
2024/02/29 10:45:24;;;;;;;;;;;;;;;36.07;44.63;100774.50;4981940;27;98455;-69
2024/02/29 10:48:22;;;;;;;;;;;;;;;38.03;41.94;100768.53;4974357;27;98071;-69
2024/02/29 10:50:53;;;;;;;;;;;;;;;38.18;41.33;100766.06;4985473;27;99234;-69
2024/02/29 10:53:32;;;;;;;;;;;;;;;37.07;42.35;100770.06;4978885;27;98444;-69
2024/02/29 10:56:02;;;;;;;;;;;;;;;37.65;41.12;100758.03;5000654;27;98346;-69
2024/02/29 10:58:35;;;;;;;;;;;;;;;38.76;39.93;100760.94;4996989;27;98063;-69
2024/02/29 11:01:02;;;;;;;;;;;;;;;38.51;40.38;100755.34;4968254;27;97952;-69
2024/02/29 11:03:29;;;;;;;;;;;;;;;38.10;40.69;100745.81;4996394;27;99497;-69
2024/02/29 11:05:56;;;;;;;;;;;;;;;37.20;41.52;100741.25;4982206;27;98494;-69
2024/02/29 11:08:22;;;;;;;;;;;;;;;36.90;41.66;100748.03;4979512;27;100193;-70
2024/02/29 11:10:50;;;;;;;;;;;;;;;36.10;42.73;100742.81;4966844;27;99421;-71
2024/02/29 11:13:21;;;;;;;;;;;;;;;34.75;43.94;100733.09;5000594;27;98085;-71
2024/02/29 11:15:53;;;;;;;;;;;;;;;35.08;43.34;100730.50;4991937;27;99734;-71
2024/02/29 11:18:23;;;;;;;;;;;;;;;35.10;43.11;100726.06;4979517;27;98130;-69
2024/02/29 11:21:05;;;;;;;;;;;;;;;33.70;44.91;100726.66;4970489;27;98363;-71
2024/02/29 11:23:35;;;;;;;;;;;;;;;33.22;44.66;100728.41;4980428;27;100234;-71
2024/02/29 11:26:08;;;;;;;;;;;;;;;32.36;45.54;100711.66;4985372;27;98223;-71
2024/02/29 11:28:38;;;;;;;;;;;;;;;31.81;45.90;100711.59;4985425;27;98110;-72
2024/02/29 11:31:17;;;;;;;;;;;;;;;31.82;45.16;100713.97;4967533;27;98275;-71
2024/02/29 11:33:44;;;;;;;;;;;;;;;31.33;45.77;100713.03;4968380;27;98474;-71
2024/02/29 11:36:11;;;;;;;;;;;;;;;30.56;46.54;100710.72;4995366;27;98163;-72
2024/02/29 11:38:38;;;;;;;;;;;;;;;29.96;46.85;100700.31;4967999;27;98093;-71
2024/02/29 11:41:34;;;;;;;;;;;;;;;29.79;46.48;100701.06;4976403;27;98146;-72
2024/02/29 11:44:00;;;;;;;;;;;;;;;29.43;46.44;100697.34;4951593;27;98141;-71
2024/02/29 11:46:26;;;;;;;;;;;;;;;28.90;47.34;100695.84;4979836;27;98574;-71
2024/02/29 11:48:53;;;;;;;;;;;;;;;28.90;46.74;100683.97;5000354;27;98770;-71
2024/02/29 11:51:20;;;;;;;;;;;;;;;29.19;46.10;100674.63;4971794;27;98542;-72
2024/02/29 11:53:49;;;;;;;;;;;;;;;29.17;46.34;100679.00;4964628;27;100264;-71
2024/02/29 11:56:17;;;;;;;;;;;;;;;29.05;46.26;100675.38;4986888;27;98016;-71
2024/02/29 11:58:49;;;;;;;;;;;;;;;29.19;45.87;100669.09;5006255;27;98111;-72
2024/02/29 12:01:16;;;;;;;;;;;;;;;29.17;46.10;100673.47;4986867;27;98016;-71
2024/02/29 12:03:45;;;;;;;;;;;;;;;29.02;46.06;100669.81;5006555;27;100988;-71
2024/02/29 12:06:12;;;;;;;;;;;;;;;28.90;46.42;100656.25;4988521;27;98379;-71
2024/02/29 12:08:39;;;;;;;;;;;;;;;28.67;46.12;100662.81;4979621;27;97783;-72
2024/02/29 12:11:05;;;;;;;;;;;;;;;28.77;46.40;100664.09;4967567;27;98357;-70
2024/02/29 12:13:32;;;;;;;;;;;;;;;28.49;46.31;100661.88;4962262;27;98055;-71
2024/02/29 12:15:58;;;;;;;;;;;;;;;27.99;46.64;100648.41;4985469;27;98493;-71
2024/02/29 12:18:28;;;;;;;;;;;;;;;27.68;46.94;100648.84;4964733;27;98187;-69
2024/02/29 12:20:56;;;;;;;;;;;;;;;27.24;47.21;100647.53;4979153;27;98358;-69
2024/02/29 12:23:23;;;;;;;;;;;;;;;26.83;47.43;100644.59;4984684;27;99739;-69
2024/02/29 12:25:50;;;;;;;;;;;;;;;26.66;47.33;100637.63;5003406;27;99633;-71
2024/02/29 12:28:17;;;;;;;;;;;;;;;26.29;47.64;100636.63;4983678;27;100034;-71
2024/02/29 12:30:45;;;;;;;;;;;;;;;26.02;47.63;100641.31;4979995;27;98261;-71
2024/02/29 12:33:13;;;;;;;;;;;;;;;25.75;47.91;100635.66;4985118;27;98557;-71
2024/02/29 12:35:41;;;;;;;;;;;;;;;25.43;47.97;100635.06;4987657;27;98344;-71
2024/02/29 12:38:12;;;;;;;;;;;;;;;25.08;47.97;100627.59;4974230;27;98114;-71